sensor_id;sensor_type;location;lat;lon;timestamp;temperature;humidity
8715;DHT22;4394;51.208;8.904;2023-06-22T00:00:54;21.30;99.90
8715;DHT22;4394;51.208;8.904;2023-06-22T00:03:43;21.20;99.90
8715;DHT22;4394;51.208;8.904;2023-06-22T00:06:32;21.30;99.90
8715;DHT22;4394;51.208;8.904;2023-06-22T00:09:20;21.20;99.90
8715;DHT22;4394;51.208;8.904;2023-06-22T00:12:08;21.20;99.90
8715;DHT22;4394;51.208;8.904;2023-06-22T00:14:56;21.20;99.90
8715;DHT22;4394;51.208;8.904;2023-06-22T00:17:45;21.20;99.90
8715;DHT22;4394;51.208;8.904;2023-06-22T00:20:35;21.30;99.90
8715;DHT22;4394;51.208;8.904;2023-06-22T00:23:24;21.30;99.90
8715;DHT22;4394;51.208;8.904;2023-06-22T00:26:12;21.30;99.90
8715;DHT22;4394;51.208;8.904;2023-06-22T00:29:00;21.20;99.90
8715;DHT22;4394;51.208;8.904;2023-06-22T00:31:48;21.30;99.90
8715;DHT22;4394;51.208;8.904;2023-06-22T00:34:36;21.40;99.90
8715;DHT22;4394;51.208;8.904;2023-06-22T00:37:27;21.30;99.90
8715;DHT22;4394;51.208;8.904;2023-06-22T00:40:16;21.30;99.90
8715;DHT22;4394;51.208;8.904;2023-06-22T00:43:08;21.30;99.90
8715;DHT22;4394;51.208;8.904;2023-06-22T00:45:56;21.20;99.90
8715;DHT22;4394;51.208;8.904;2023-06-22T00:48:44;21.00;99.90
8715;DHT22;4394;51.208;8.904;2023-06-22T00:51:32;21.00;99.90
8715;DHT22;4394;51.208;8.904;2023-06-22T00:54:22;21.30;99.90
8715;DHT22;4394;51.208;8.904;2023-06-22T00:57:12;21.20;99.90
8715;DHT22;4394;51.208;8.904;2023-06-22T01:00:03;21.00;99.90
8715;DHT22;4394;51.208;8.904;2023-06-22T01:02:54;20.90;99.90
8715;DHT22;4394;51.208;8.904;2023-06-22T01:05:42;20.90;99.90
8715;DHT22;4394;51.208;8.904;2023-06-22T01:08:44;20.90;99.90
8715;DHT22;4394;51.208;8.904;2023-06-22T01:11:39;20.90;99.90
8715;DHT22;4394;51.208;8.904;2023-06-22T01:14:38;20.80;99.90
8715;DHT22;4394;51.208;8.904;2023-06-22T01:17:27;20.80;99.90
8715;DHT22;4394;51.208;8.904;2023-06-22T01:20:17;20.80;99.90
8715;DHT22;4394;51.208;8.904;2023-06-22T01:23:11;20.80;99.90
8715;DHT22;4394;51.208;8.904;2023-06-22T01:26:11;20.90;99.90
8715;DHT22;4394;51.208;8.904;2023-06-22T01:29:06;20.80;99.90
8715;DHT22;4394;51.208;8.904;2023-06-22T01:31:56;20.70;99.90
8715;DHT22;4394;51.208;8.904;2023-06-22T01:34:46;20.70;99.90
8715;DHT22;4394;51.208;8.904;2023-06-22T01:37:37;20.60;99.90
8715;DHT22;4394;51.208;8.904;2023-06-22T01:40:26;20.70;99.90
8715;DHT22;4394;51.208;8.904;2023-06-22T01:43:14;20.70;99.90
8715;DHT22;4394;51.208;8.904;2023-06-22T01:46:04;20.70;99.90
8715;DHT22;4394;51.208;8.904;2023-06-22T01:48:53;20.70;99.90
8715;DHT22;4394;51.208;8.904;2023-06-22T01:51:41;20.70;99.90
8715;DHT22;4394;51.208;8.904;2023-06-22T01:54:30;20.70;99.90
8715;DHT22;4394;51.208;8.904;2023-06-22T01:57:18;20.70;99.90
8715;DHT22;4394;51.208;8.904;2023-06-22T02:00:10;20.70;99.90
8715;DHT22;4394;51.208;8.904;2023-06-22T02:03:05;20.70;99.90
8715;DHT22;4394;51.208;8.904;2023-06-22T02:06:01;20.70;99.90
8715;DHT22;4394;51.208;8.904;2023-06-22T02:08:55;20.60;99.90
8715;DHT22;4394;51.208;8.904;2023-06-22T02:11:46;20.60;99.90
8715;DHT22;4394;51.208;8.904;2023-06-22T02:14:35;20.70;99.90
8715;DHT22;4394;51.208;8.904;2023-06-22T02:17:26;20.70;99.90
8715;DHT22;4394;51.208;8.904;2023-06-22T02:20:15;20.70;99.90
8715;DHT22;4394;51.208;8.904;2023-06-22T02:23:04;20.70;99.90
8715;DHT22;4394;51.208;8.904;2023-06-22T02:25:53;20.70;99.90
8715;DHT22;4394;51.208;8.904;2023-06-22T02:28:41;20.70;99.90
8715;DHT22;4394;51.208;8.904;2023-06-22T02:31:29;20.70;99.90
8715;DHT22;4394;51.208;8.904;2023-06-22T02:34:18;20.80;99.90
8715;DHT22;4394;51.208;8.904;2023-06-22T02:37:07;20.80;99.90
8715;DHT22;4394;51.208;8.904;2023-06-22T02:39:57;20.80;99.90
8715;DHT22;4394;51.208;8.904;2023-06-22T02:42:45;20.70;99.90
8715;DHT22;4394;51.208;8.904;2023-06-22T02:45:33;20.80;99.90
8715;DHT22;4394;51.208;8.904;2023-06-22T02:48:21;20.70;99.90
8715;DHT22;4394;51.208;8.904;2023-06-22T02:51:10;20.70;99.90
8715;DHT22;4394;51.208;8.904;2023-06-22T02:53:59;20.70;99.90
8715;DHT22;4394;51.208;8.904;2023-06-22T02:56:47;20.70;99.90
8715;DHT22;4394;51.208;8.904;2023-06-22T02:59:37;20.70;99.90
8715;DHT22;4394;51.208;8.904;2023-06-22T03:02:27;20.70;99.90
8715;DHT22;4394;51.208;8.904;2023-06-22T03:05:16;20.70;99.90
8715;DHT22;4394;51.208;8.904;2023-06-22T03:08:05;20.70;99.90
8715;DHT22;4394;51.208;8.904;2023-06-22T03:10:54;20.70;99.90
8715;DHT22;4394;51.208;8.904;2023-06-22T03:13:43;20.80;99.90
8715;DHT22;4394;51.208;8.904;2023-06-22T03:16:32;20.80;99.90
8715;DHT22;4394;51.208;8.904;2023-06-22T03:19:20;20.80;99.90
8715;DHT22;4394;51.208;8.904;2023-06-22T03:22:08;20.70;99.90
8715;DHT22;4394;51.208;8.904;2023-06-22T03:25:00;20.80;99.90
8715;DHT22;4394;51.208;8.904;2023-06-22T03:27:49;20.80;99.90
8715;DHT22;4394;51.208;8.904;2023-06-22T03:30:37;20.80;99.90
8715;DHT22;4394;51.208;8.904;2023-06-22T03:33:25;20.80;99.90
8715;DHT22;4394;51.208;8.904;2023-06-22T03:36:13;20.90;99.90
8715;DHT22;4394;51.208;8.904;2023-06-22T03:39:03;20.80;99.90
8715;DHT22;4394;51.208;8.904;2023-06-22T03:41:51;20.90;99.90
8715;DHT22;4394;51.208;8.904;2023-06-22T03:44:41;20.90;99.90
8715;DHT22;4394;51.208;8.904;2023-06-22T03:47:29;20.90;99.90
8715;DHT22;4394;51.208;8.904;2023-06-22T03:50:17;21.00;99.90
8715;DHT22;4394;51.208;8.904;2023-06-22T03:53:07;21.00;99.90
8715;DHT22;4394;51.208;8.904;2023-06-22T03:55:55;21.00;99.90
8715;DHT22;4394;51.208;8.904;2023-06-22T03:58:43;21.00;99.90
8715;DHT22;4394;51.208;8.904;2023-06-22T04:01:33;21.00;99.90
8715;DHT22;4394;51.208;8.904;2023-06-22T04:04:21;21.00;99.90
8715;DHT22;4394;51.208;8.904;2023-06-22T04:07:09;20.90;99.90
8715;DHT22;4394;51.208;8.904;2023-06-22T04:09:57;21.40;99.90
8715;DHT22;4394;51.208;8.904;2023-06-22T04:12:45;21.10;99.90
8715;DHT22;4394;51.208;8.904;2023-06-22T04:15:33;20.90;99.90
8715;DHT22;4394;51.208;8.904;2023-06-22T04:18:23;20.80;99.90
8715;DHT22;4394;51.208;8.904;2023-06-22T04:21:11;20.80;99.90
8715;DHT22;4394;51.208;8.904;2023-06-22T04:23:59;20.70;99.90
8715;DHT22;4394;51.208;8.904;2023-06-22T04:26:47;20.70;99.90
8715;DHT22;4394;51.208;8.904;2023-06-22T04:29:35;20.70;99.90
8715;DHT22;4394;51.208;8.904;2023-06-22T04:32:24;20.70;99.90
8715;DHT22;4394;51.208;8.904;2023-06-22T04:35:14;20.70;99.90
8715;DHT22;4394;51.208;8.904;2023-06-22T04:38:02;20.70;99.90
8715;DHT22;4394;51.208;8.904;2023-06-22T04:40:51;20.70;99.90
8715;DHT22;4394;51.208;8.904;2023-06-22T04:43:40;20.70;99.90
8715;DHT22;4394;51.208;8.904;2023-06-22T04:46:28;20.70;99.90
8715;DHT22;4394;51.208;8.904;2023-06-22T04:49:16;20.70;99.90
8715;DHT22;4394;51.208;8.904;2023-06-22T04:52:07;20.70;99.90
8715;DHT22;4394;51.208;8.904;2023-06-22T04:54:55;20.70;99.90
8715;DHT22;4394;51.208;8.904;2023-06-22T04:57:47;20.80;99.90
8715;DHT22;4394;51.208;8.904;2023-06-22T05:00:36;20.70;99.90
8715;DHT22;4394;51.208;8.904;2023-06-22T05:03:24;20.70;99.90
8715;DHT22;4394;51.208;8.904;2023-06-22T05:06:14;20.70;99.90
8715;DHT22;4394;51.208;8.904;2023-06-22T05:09:03;20.70;99.90
8715;DHT22;4394;51.208;8.904;2023-06-22T05:11:52;20.70;99.90
8715;DHT22;4394;51.208;8.904;2023-06-22T05:14:40;20.60;99.90
8715;DHT22;4394;51.208;8.904;2023-06-22T05:17:28;20.60;99.90
8715;DHT22;4394;51.208;8.904;2023-06-22T05:20:16;20.60;99.90
8715;DHT22;4394;51.208;8.904;2023-06-22T05:23:05;20.60;99.90
8715;DHT22;4394;51.208;8.904;2023-06-22T05:25:54;20.60;99.90
8715;DHT22;4394;51.208;8.904;2023-06-22T05:28:45;20.60;99.90
8715;DHT22;4394;51.208;8.904;2023-06-22T05:31:33;20.60;99.90
8715;DHT22;4394;51.208;8.904;2023-06-22T05:34:21;20.60;99.90
8715;DHT22;4394;51.208;8.904;2023-06-22T05:37:09;20.70;99.90
8715;DHT22;4394;51.208;8.904;2023-06-22T05:39:59;20.70;99.90
8715;DHT22;4394;51.208;8.904;2023-06-22T05:42:49;20.80;99.90
8715;DHT22;4394;51.208;8.904;2023-06-22T05:45:37;20.80;99.90
8715;DHT22;4394;51.208;8.904;2023-06-22T05:48:25;20.80;99.90
8715;DHT22;4394;51.208;8.904;2023-06-22T05:51:13;20.80;99.90
8715;DHT22;4394;51.208;8.904;2023-06-22T05:54:01;20.90;99.90
8715;DHT22;4394;51.208;8.904;2023-06-22T05:56:49;20.90;99.90
8715;DHT22;4394;51.208;8.904;2023-06-22T05:59:39;20.90;99.90
8715;DHT22;4394;51.208;8.904;2023-06-22T06:02:27;20.80;99.90
8715;DHT22;4394;51.208;8.904;2023-06-22T06:05:15;20.90;99.90
8715;DHT22;4394;51.208;8.904;2023-06-22T06:08:05;20.80;99.90
8715;DHT22;4394;51.208;8.904;2023-06-22T06:10:53;20.90;99.90
8715;DHT22;4394;51.208;8.904;2023-06-22T06:13:41;21.00;99.90
8715;DHT22;4394;51.208;8.904;2023-06-22T06:16:31;21.10;99.90
8715;DHT22;4394;51.208;8.904;2023-06-22T06:19:19;21.20;99.90
8715;DHT22;4394;51.208;8.904;2023-06-22T06:22:07;21.30;99.90
8715;DHT22;4394;51.208;8.904;2023-06-22T06:24:55;21.40;99.90
8715;DHT22;4394;51.208;8.904;2023-06-22T06:27:44;21.40;99.90
8715;DHT22;4394;51.208;8.904;2023-06-22T06:30:32;21.50;99.90
8715;DHT22;4394;51.208;8.904;2023-06-22T06:33:22;21.60;99.90
8715;DHT22;4394;51.208;8.904;2023-06-22T06:36:12;21.60;99.90
8715;DHT22;4394;51.208;8.904;2023-06-22T06:39:00;21.70;99.90
8715;DHT22;4394;51.208;8.904;2023-06-22T06:41:48;21.80;99.90
8715;DHT22;4394;51.208;8.904;2023-06-22T06:44:36;21.80;99.90
8715;DHT22;4394;51.208;8.904;2023-06-22T06:47:24;21.80;99.90
8715;DHT22;4394;51.208;8.904;2023-06-22T06:50:14;21.80;99.90
8715;DHT22;4394;51.208;8.904;2023-06-22T06:53:02;21.80;99.90
8715;DHT22;4394;51.208;8.904;2023-06-22T06:55:50;21.80;99.90
8715;DHT22;4394;51.208;8.904;2023-06-22T06:58:41;21.90;99.90
8715;DHT22;4394;51.208;8.904;2023-06-22T07:01:31;22.10;99.90
8715;DHT22;4394;51.208;8.904;2023-06-22T07:04:20;22.20;99.90
8715;DHT22;4394;51.208;8.904;2023-06-22T07:07:10;22.30;99.90
8715;DHT22;4394;51.208;8.904;2023-06-22T07:09:58;22.40;99.90
8715;DHT22;4394;51.208;8.904;2023-06-22T07:12:46;22.50;99.90
8715;DHT22;4394;51.208;8.904;2023-06-22T07:15:34;22.60;99.90
8715;DHT22;4394;51.208;8.904;2023-06-22T07:18:22;22.70;99.90
8715;DHT22;4394;51.208;8.904;2023-06-22T07:21:10;22.70;99.90
8715;DHT22;4394;51.208;8.904;2023-06-22T07:23:59;22.80;99.90
8715;DHT22;4394;51.208;8.904;2023-06-22T07:26:47;22.80;99.90
8715;DHT22;4394;51.208;8.904;2023-06-22T07:29:36;22.90;99.90
8715;DHT22;4394;51.208;8.904;2023-06-22T07:32:26;22.90;99.90
8715;DHT22;4394;51.208;8.904;2023-06-22T07:35:15;23.00;99.90
8715;DHT22;4394;51.208;8.904;2023-06-22T07:38:03;23.00;99.90
8715;DHT22;4394;51.208;8.904;2023-06-22T07:40:53;23.00;99.90
8715;DHT22;4394;51.208;8.904;2023-06-22T07:43:41;23.10;99.90
8715;DHT22;4394;51.208;8.904;2023-06-22T07:46:29;23.10;99.90
8715;DHT22;4394;51.208;8.904;2023-06-22T07:49:18;23.20;99.90
8715;DHT22;4394;51.208;8.904;2023-06-22T07:52:06;23.30;99.90
8715;DHT22;4394;51.208;8.904;2023-06-22T07:54:54;23.30;99.90
8715;DHT22;4394;51.208;8.904;2023-06-22T07:57:43;23.40;99.90
8715;DHT22;4394;51.208;8.904;2023-06-22T08:00:33;23.50;99.90
8715;DHT22;4394;51.208;8.904;2023-06-22T08:03:22;23.60;99.90
8715;DHT22;4394;51.208;8.904;2023-06-22T08:06:11;24.10;99.90
8715;DHT22;4394;51.208;8.904;2023-06-22T08:08:59;23.90;99.90
8715;DHT22;4394;51.208;8.904;2023-06-22T08:11:47;23.90;99.90
8715;DHT22;4394;51.208;8.904;2023-06-22T08:14:38;23.90;99.90
8715;DHT22;4394;51.208;8.904;2023-06-22T08:17:26;24.00;99.90
8715;DHT22;4394;51.208;8.904;2023-06-22T08:20:14;24.00;99.90
8715;DHT22;4394;51.208;8.904;2023-06-22T08:23:02;24.00;99.90
8715;DHT22;4394;51.208;8.904;2023-06-22T08:25:53;24.10;99.90
8715;DHT22;4394;51.208;8.904;2023-06-22T08:28:41;24.20;99.90
8715;DHT22;4394;51.208;8.904;2023-06-22T08:31:30;24.30;99.90
8715;DHT22;4394;51.208;8.904;2023-06-22T08:34:18;24.40;99.90
8715;DHT22;4394;51.208;8.904;2023-06-22T08:37:10;24.50;99.90
8715;DHT22;4394;51.208;8.904;2023-06-22T08:40:01;24.80;99.90
8715;DHT22;4394;51.208;8.904;2023-06-22T08:42:51;25.00;99.90
8715;DHT22;4394;51.208;8.904;2023-06-22T08:45:39;24.80;99.90
8715;DHT22;4394;51.208;8.904;2023-06-22T08:48:29;24.80;99.90
8715;DHT22;4394;51.208;8.904;2023-06-22T08:51:17;25.20;99.90
8715;DHT22;4394;51.208;8.904;2023-06-22T08:54:05;25.20;99.90
8715;DHT22;4394;51.208;8.904;2023-06-22T08:56:53;25.20;99.90
8715;DHT22;4394;51.208;8.904;2023-06-22T08:59:41;25.20;99.90
8715;DHT22;4394;51.208;8.904;2023-06-22T09:02:29;25.20;99.90
8715;DHT22;4394;51.208;8.904;2023-06-22T09:05:20;25.30;99.90
8715;DHT22;4394;51.208;8.904;2023-06-22T09:08:08;25.40;99.90
8715;DHT22;4394;51.208;8.904;2023-06-22T09:10:57;25.50;99.90
8715;DHT22;4394;51.208;8.904;2023-06-22T09:13:45;25.60;99.90
8715;DHT22;4394;51.208;8.904;2023-06-22T09:16:34;25.60;99.90
8715;DHT22;4394;51.208;8.904;2023-06-22T09:19:22;25.70;99.90
8715;DHT22;4394;51.208;8.904;2023-06-22T09:22:11;25.70;99.90
8715;DHT22;4394;51.208;8.904;2023-06-22T09:24:59;26.20;99.90
8715;DHT22;4394;51.208;8.904;2023-06-22T09:27:47;26.00;99.90
8715;DHT22;4394;51.208;8.904;2023-06-22T09:30:35;25.90;99.90
8715;DHT22;4394;51.208;8.904;2023-06-22T09:33:23;25.90;99.90
8715;DHT22;4394;51.208;8.904;2023-06-22T09:36:11;26.40;99.90
8715;DHT22;4394;51.208;8.904;2023-06-22T09:39:01;26.30;99.90
8715;DHT22;4394;51.208;8.904;2023-06-22T09:41:52;26.30;99.90
8715;DHT22;4394;51.208;8.904;2023-06-22T09:44:41;26.30;99.90
8715;DHT22;4394;51.208;8.904;2023-06-22T09:47:29;26.30;99.90
8715;DHT22;4394;51.208;8.904;2023-06-22T09:50:17;26.30;99.90
8715;DHT22;4394;51.208;8.904;2023-06-22T09:53:05;26.30;99.90
8715;DHT22;4394;51.208;8.904;2023-06-22T09:55:54;26.40;99.90
8715;DHT22;4394;51.208;8.904;2023-06-22T09:58:44;26.60;99.90
8715;DHT22;4394;51.208;8.904;2023-06-22T10:01:33;26.70;99.90
8715;DHT22;4394;51.208;8.904;2023-06-22T10:04:21;26.80;99.90
8715;DHT22;4394;51.208;8.904;2023-06-22T10:07:09;27.20;99.90
8715;DHT22;4394;51.208;8.904;2023-06-22T10:09:57;27.10;99.90
8715;DHT22;4394;51.208;8.904;2023-06-22T10:12:54;27.10;99.90
8715;DHT22;4394;51.208;8.904;2023-06-22T10:15:42;27.20;99.90
8715;DHT22;4394;51.208;8.904;2023-06-22T10:18:32;27.70;99.90
8715;DHT22;4394;51.208;8.904;2023-06-22T10:21:20;27.60;99.90
8715;DHT22;4394;51.208;8.904;2023-06-22T10:24:08;27.50;99.90
8715;DHT22;4394;51.208;8.904;2023-06-22T10:26:56;27.50;99.90
8715;DHT22;4394;51.208;8.904;2023-06-22T10:29:46;27.60;99.90
8715;DHT22;4394;51.208;8.904;2023-06-22T10:32:34;27.70;99.90
8715;DHT22;4394;51.208;8.904;2023-06-22T10:35:23;27.70;99.90
8715;DHT22;4394;51.208;8.904;2023-06-22T10:38:12;27.70;99.90
8715;DHT22;4394;51.208;8.904;2023-06-22T10:41:00;27.80;99.90
8715;DHT22;4394;51.208;8.904;2023-06-22T10:43:49;27.80;99.90
8715;DHT22;4394;51.208;8.904;2023-06-22T10:46:38;27.80;99.90
8715;DHT22;4394;51.208;8.904;2023-06-22T10:49:26;27.70;99.90
8715;DHT22;4394;51.208;8.904;2023-06-22T10:52:14;27.80;99.90
8715;DHT22;4394;51.208;8.904;2023-06-22T10:55:03;28.00;99.90
8715;DHT22;4394;51.208;8.904;2023-06-22T10:57:51;28.10;99.90
8715;DHT22;4394;51.208;8.904;2023-06-22T11:00:39;28.20;99.90
8715;DHT22;4394;51.208;8.904;2023-06-22T11:03:29;28.20;99.90
8715;DHT22;4394;51.208;8.904;2023-06-22T11:06:17;28.20;99.90
8715;DHT22;4394;51.208;8.904;2023-06-22T11:09:05;28.30;99.90
8715;DHT22;4394;51.208;8.904;2023-06-22T11:11:58;28.40;99.90
8715;DHT22;4394;51.208;8.904;2023-06-22T11:14:47;28.60;99.90
8715;DHT22;4394;51.208;8.904;2023-06-22T11:17:37;28.70;99.90
8715;DHT22;4394;51.208;8.904;2023-06-22T11:20:26;28.90;99.90
8715;DHT22;4394;51.208;8.904;2023-06-22T11:23:15;28.90;99.90
8715;DHT22;4394;51.208;8.904;2023-06-22T11:26:03;28.80;99.90
8715;DHT22;4394;51.208;8.904;2023-06-22T11:28:51;28.70;99.90
8715;DHT22;4394;51.208;8.904;2023-06-22T11:31:39;28.60;99.90
8715;DHT22;4394;51.208;8.904;2023-06-22T11:34:29;28.50;99.90
8715;DHT22;4394;51.208;8.904;2023-06-22T11:37:19;28.50;99.90
8715;DHT22;4394;51.208;8.904;2023-06-22T11:40:08;28.40;99.90
8715;DHT22;4394;51.208;8.904;2023-06-22T11:42:56;28.30;99.90
8715;DHT22;4394;51.208;8.904;2023-06-22T11:45:44;28.20;99.90
8715;DHT22;4394;51.208;8.904;2023-06-22T11:48:33;28.10;99.90
8715;DHT22;4394;51.208;8.904;2023-06-22T11:51:22;27.90;99.90
8715;DHT22;4394;51.208;8.904;2023-06-22T11:54:12;27.80;99.90
8715;DHT22;4394;51.208;8.904;2023-06-22T11:57:00;27.80;99.90
8715;DHT22;4394;51.208;8.904;2023-06-22T11:59:48;27.70;99.90
8715;DHT22;4394;51.208;8.904;2023-06-22T12:02:36;27.70;99.90
8715;DHT22;4394;51.208;8.904;2023-06-22T12:05:24;27.70;99.90
8715;DHT22;4394;51.208;8.904;2023-06-22T12:08:12;27.70;99.90
8715;DHT22;4394;51.208;8.904;2023-06-22T12:11:02;27.80;99.90
8715;DHT22;4394;51.208;8.904;2023-06-22T12:13:50;27.80;99.90
8715;DHT22;4394;51.208;8.904;2023-06-22T12:16:38;27.70;99.90
8715;DHT22;4394;51.208;8.904;2023-06-22T12:19:26;27.60;99.90
8715;DHT22;4394;51.208;8.904;2023-06-22T12:22:14;27.60;99.90
8715;DHT22;4394;51.208;8.904;2023-06-22T12:25:03;27.60;99.90
8715;DHT22;4394;51.208;8.904;2023-06-22T12:27:52;27.60;99.90
8715;DHT22;4394;51.208;8.904;2023-06-22T12:30:40;27.90;99.90
8715;DHT22;4394;51.208;8.904;2023-06-22T12:33:28;28.10;99.90
8715;DHT22;4394;51.208;8.904;2023-06-22T12:36:17;28.30;99.90
8715;DHT22;4394;51.208;8.904;2023-06-22T12:39:05;28.60;99.90
8715;DHT22;4394;51.208;8.904;2023-06-22T12:41:53;28.70;99.90
8715;DHT22;4394;51.208;8.904;2023-06-22T12:44:43;28.80;99.90
8715;DHT22;4394;51.208;8.904;2023-06-22T12:47:31;29.00;99.90
8715;DHT22;4394;51.208;8.904;2023-06-22T12:50:19;29.10;99.90
8715;DHT22;4394;51.208;8.904;2023-06-22T12:53:07;29.20;99.90
8715;DHT22;4394;51.208;8.904;2023-06-22T12:55:55;29.30;99.90
8715;DHT22;4394;51.208;8.904;2023-06-22T12:58:43;29.30;99.90
8715;DHT22;4394;51.208;8.904;2023-06-22T13:01:32;29.40;99.90
8715;DHT22;4394;51.208;8.904;2023-06-22T13:04:21;29.50;99.90
8715;DHT22;4394;51.208;8.904;2023-06-22T13:07:09;29.50;99.90
8715;DHT22;4394;51.208;8.904;2023-06-22T13:10:08;29.50;99.90
8715;DHT22;4394;51.208;8.904;2023-06-22T13:12:57;29.30;99.90
8715;DHT22;4394;51.208;8.904;2023-06-22T13:15:47;29.20;99.90
8715;DHT22;4394;51.208;8.904;2023-06-22T13:18:37;29.10;99.90
8715;DHT22;4394;51.208;8.904;2023-06-22T13:21:25;29.40;99.90
8715;DHT22;4394;51.208;8.904;2023-06-22T13:24:13;29.00;99.90
8715;DHT22;4394;51.208;8.904;2023-06-22T13:27:01;28.60;99.90
8715;DHT22;4394;51.208;8.904;2023-06-22T13:29:49;28.60;99.90
8715;DHT22;4394;51.208;8.904;2023-06-22T13:32:38;28.30;99.90
8715;DHT22;4394;51.208;8.904;2023-06-22T13:35:30;28.10;99.90
8715;DHT22;4394;51.208;8.904;2023-06-22T13:38:18;27.90;99.90
8715;DHT22;4394;51.208;8.904;2023-06-22T13:41:07;27.60;99.90
8715;DHT22;4394;51.208;8.904;2023-06-22T13:43:55;27.30;99.90
8715;DHT22;4394;51.208;8.904;2023-06-22T13:46:43;26.90;99.90
8715;DHT22;4394;51.208;8.904;2023-06-22T13:49:31;26.20;99.90
8715;DHT22;4394;51.208;8.904;2023-06-22T13:52:21;25.60;99.90
8715;DHT22;4394;51.208;8.904;2023-06-22T13:55:09;24.90;99.90
8715;DHT22;4394;51.208;8.904;2023-06-22T13:57:57;23.80;99.90
8715;DHT22;4394;51.208;8.904;2023-06-22T14:00:45;22.80;99.90
8715;DHT22;4394;51.208;8.904;2023-06-22T14:03:34;22.40;99.90
8715;DHT22;4394;51.208;8.904;2023-06-22T14:06:22;22.20;99.90
8715;DHT22;4394;51.208;8.904;2023-06-22T14:09:12;22.10;99.90
8715;DHT22;4394;51.208;8.904;2023-06-22T14:12:03;22.00;99.90
8715;DHT22;4394;51.208;8.904;2023-06-22T14:14:51;21.90;99.90
8715;DHT22;4394;51.208;8.904;2023-06-22T14:17:39;21.90;99.90
8715;DHT22;4394;51.208;8.904;2023-06-22T14:20:27;22.00;99.90
8715;DHT22;4394;51.208;8.904;2023-06-22T14:23:16;22.10;99.90
8715;DHT22;4394;51.208;8.904;2023-06-22T14:26:05;22.20;99.90
8715;DHT22;4394;51.208;8.904;2023-06-22T14:28:54;22.30;99.90
8715;DHT22;4394;51.208;8.904;2023-06-22T14:31:45;22.30;99.90
8715;DHT22;4394;51.208;8.904;2023-06-22T14:34:34;22.20;99.90
8715;DHT22;4394;51.208;8.904;2023-06-22T14:37:26;22.20;99.90
8715;DHT22;4394;51.208;8.904;2023-06-22T14:40:14;22.20;99.90
8715;DHT22;4394;51.208;8.904;2023-06-22T14:43:03;22.20;99.90
8715;DHT22;4394;51.208;8.904;2023-06-22T14:45:51;22.10;99.90
8715;DHT22;4394;51.208;8.904;2023-06-22T14:48:40;22.20;99.90
8715;DHT22;4394;51.208;8.904;2023-06-22T14:51:28;22.20;99.90
8715;DHT22;4394;51.208;8.904;2023-06-22T14:54:16;22.00;99.90
8715;DHT22;4394;51.208;8.904;2023-06-22T14:57:05;21.90;99.90
8715;DHT22;4394;51.208;8.904;2023-06-22T14:59:54;22.00;99.90
8715;DHT22;4394;51.208;8.904;2023-06-22T15:02:42;21.90;99.90
8715;DHT22;4394;51.208;8.904;2023-06-22T15:05:31;21.90;99.90
8715;DHT22;4394;51.208;8.904;2023-06-22T15:08:19;21.90;99.90
8715;DHT22;4394;51.208;8.904;2023-06-22T15:11:07;22.10;99.90
8715;DHT22;4394;51.208;8.904;2023-06-22T15:13:58;22.20;99.90
8715;DHT22;4394;51.208;8.904;2023-06-22T15:16:48;22.20;99.90
8715;DHT22;4394;51.208;8.904;2023-06-22T15:19:36;22.10;99.90
8715;DHT22;4394;51.208;8.904;2023-06-22T15:22:24;22.00;99.90
8715;DHT22;4394;51.208;8.904;2023-06-22T15:25:12;21.90;99.90
8715;DHT22;4394;51.208;8.904;2023-06-22T15:28:00;21.80;99.90
8715;DHT22;4394;51.208;8.904;2023-06-22T15:30:50;21.90;99.90
8715;DHT22;4394;51.208;8.904;2023-06-22T15:33:40;21.80;99.90
8715;DHT22;4394;51.208;8.904;2023-06-22T15:36:28;21.70;99.90
8715;DHT22;4394;51.208;8.904;2023-06-22T15:39:17;21.50;99.90
8715;DHT22;4394;51.208;8.904;2023-06-22T15:42:05;21.30;99.90
8715;DHT22;4394;51.208;8.904;2023-06-22T15:44:53;21.20;99.90
8715;DHT22;4394;51.208;8.904;2023-06-22T15:47:42;21.20;99.90
8715;DHT22;4394;51.208;8.904;2023-06-22T15:50:31;21.20;99.90
8715;DHT22;4394;51.208;8.904;2023-06-22T15:53:20;21.20;99.90
8715;DHT22;4394;51.208;8.904;2023-06-22T15:56:08;21.30;99.90
8715;DHT22;4394;51.208;8.904;2023-06-22T15:58:56;21.40;99.90
8715;DHT22;4394;51.208;8.904;2023-06-22T16:01:45;21.40;99.90
8715;DHT22;4394;51.208;8.904;2023-06-22T16:04:33;21.40;99.90
8715;DHT22;4394;51.208;8.904;2023-06-22T16:07:22;21.40;99.90
8715;DHT22;4394;51.208;8.904;2023-06-22T16:10:11;21.60;99.90
8715;DHT22;4394;51.208;8.904;2023-06-22T16:13:00;21.70;99.90
8715;DHT22;4394;51.208;8.904;2023-06-22T16:15:49;21.70;99.90
8715;DHT22;4394;51.208;8.904;2023-06-22T16:18:37;21.60;99.90
8715;DHT22;4394;51.208;8.904;2023-06-22T16:21:27;21.50;99.90
8715;DHT22;4394;51.208;8.904;2023-06-22T16:24:16;21.60;99.90
8715;DHT22;4394;51.208;8.904;2023-06-22T16:27:05;21.60;99.90
8715;DHT22;4394;51.208;8.904;2023-06-22T16:29:53;21.50;99.90
8715;DHT22;4394;51.208;8.904;2023-06-22T16:32:50;21.60;99.90
8715;DHT22;4394;51.208;8.904;2023-06-22T16:35:39;21.60;99.90
8715;DHT22;4394;51.208;8.904;2023-06-22T16:38:27;21.60;99.90
8715;DHT22;4394;51.208;8.904;2023-06-22T16:41:18;21.50;99.90
8715;DHT22;4394;51.208;8.904;2023-06-22T16:44:06;21.30;99.90
8715;DHT22;4394;51.208;8.904;2023-06-22T16:46:54;20.90;99.90
8715;DHT22;4394;51.208;8.904;2023-06-22T16:49:42;20.60;99.90
8715;DHT22;4394;51.208;8.904;2023-06-22T16:52:30;20.50;99.90
8715;DHT22;4394;51.208;8.904;2023-06-22T16:55:21;20.30;99.90
8715;DHT22;4394;51.208;8.904;2023-06-22T16:58:11;20.30;99.90
8715;DHT22;4394;51.208;8.904;2023-06-22T17:01:03;20.60;99.90
8715;DHT22;4394;51.208;8.904;2023-06-22T17:04:02;20.60;99.90
8715;DHT22;4394;51.208;8.904;2023-06-22T17:06:55;20.60;99.90
8715;DHT22;4394;51.208;8.904;2023-06-22T17:09:46;20.60;99.90
8715;DHT22;4394;51.208;8.904;2023-06-22T17:12:34;20.70;99.90
8715;DHT22;4394;51.208;8.904;2023-06-22T17:15:28;20.70;99.90
8715;DHT22;4394;51.208;8.904;2023-06-22T17:18:18;20.70;99.90
8715;DHT22;4394;51.208;8.904;2023-06-22T17:21:07;20.60;99.90
8715;DHT22;4394;51.208;8.904;2023-06-22T17:23:56;20.60;99.90
8715;DHT22;4394;51.208;8.904;2023-06-22T17:26:46;20.60;99.90
8715;DHT22;4394;51.208;8.904;2023-06-22T17:29:35;20.60;99.90
8715;DHT22;4394;51.208;8.904;2023-06-22T17:32:29;20.60;99.90
8715;DHT22;4394;51.208;8.904;2023-06-22T17:35:18;20.60;99.90
8715;DHT22;4394;51.208;8.904;2023-06-22T17:38:06;21.10;99.90
8715;DHT22;4394;51.208;8.904;2023-06-22T17:41:00;20.90;99.90
8715;DHT22;4394;51.208;8.904;2023-06-22T17:43:49;20.70;99.90
8715;DHT22;4394;51.208;8.904;2023-06-22T17:46:37;20.70;99.90
8715;DHT22;4394;51.208;8.904;2023-06-22T17:49:28;20.60;99.90
8715;DHT22;4394;51.208;8.904;2023-06-22T17:52:18;20.50;99.90
8715;DHT22;4394;51.208;8.904;2023-06-22T17:55:07;20.50;99.90
8715;DHT22;4394;51.208;8.904;2023-06-22T17:57:58;20.50;99.90
8715;DHT22;4394;51.208;8.904;2023-06-22T18:00:47;20.60;99.90
8715;DHT22;4394;51.208;8.904;2023-06-22T18:03:35;20.50;99.90
8715;DHT22;4394;51.208;8.904;2023-06-22T18:06:27;20.50;99.90
8715;DHT22;4394;51.208;8.904;2023-06-22T18:09:17;20.50;99.90
8715;DHT22;4394;51.208;8.904;2023-06-22T18:12:06;20.50;99.90
8715;DHT22;4394;51.208;8.904;2023-06-22T18:14:56;20.60;99.90
8715;DHT22;4394;51.208;8.904;2023-06-22T18:17:45;20.60;99.90
8715;DHT22;4394;51.208;8.904;2023-06-22T18:20:34;20.60;99.90
8715;DHT22;4394;51.208;8.904;2023-06-22T18:23:25;20.60;99.90